createdAt,value
2019-03-22T00:00:15.356Z,99338.80
2019-03-22T00:02:16.968Z,99346.47
2019-03-22T00:04:18.568Z,99346.92
2019-03-22T00:06:20.155Z,99347.36
2019-03-22T00:08:21.772Z,99343.97
2019-03-22T00:10:23.368Z,99340.16
2019-03-22T00:12:24.965Z,99341.42
2019-03-22T00:14:26.578Z,99341.00
2019-03-22T00:16:28.173Z,99339.34
2019-03-22T00:18:29.802Z,99342.78
2019-03-22T00:20:31.404Z,99333.81
2019-03-22T00:22:32.996Z,99333.38
2019-03-22T00:24:34.584Z,99332.14
2019-03-22T00:26:36.188Z,99335.50
2019-03-22T00:28:37.812Z,99334.62
2019-03-22T00:30:39.396Z,99338.05
2019-03-22T00:32:40.989Z,99333.77
2019-03-22T00:34:42.589Z,99327.38
2019-03-22T00:36:44.182Z,99329.08
2019-03-22T00:38:45.823Z,99327.38
2019-03-22T00:40:47.409Z,99329.94
2019-03-22T00:42:49.006Z,99321.83
2019-03-22T00:44:50.601Z,99323.97
2019-03-22T00:46:52.197Z,99319.69
2019-03-22T00:48:53.793Z,99321.82
2019-03-22T00:50:55.395Z,99319.67
2019-03-22T00:52:57.008Z,99320.14
2019-03-22T00:54:58.607Z,99317.58
2019-03-22T00:57:00.201Z,99324.81
2019-03-22T00:59:01.835Z,99320.98
2019-03-22T01:01:03.444Z,99318.43
2019-03-22T01:03:05.046Z,99319.27
2019-03-22T01:05:06.689Z,99315.02
2019-03-22T01:07:08.295Z,99316.29
2019-03-22T01:09:09.917Z,99323.52
2019-03-22T01:11:11.509Z,99322.69
2019-03-22T01:13:13.101Z,99323.52
2019-03-22T01:15:14.729Z,99324.38
2019-03-22T01:17:16.315Z,99322.67
2019-03-22T01:19:18.128Z,99317.98
2019-03-22T01:21:19.726Z,99318.40
2019-03-22T01:23:21.338Z,99316.67
2019-03-22T01:25:22.970Z,99320.52
2019-03-22T01:27:24.572Z,99312.86
2019-03-22T01:29:26.187Z,99310.33
2019-03-22T01:31:27.780Z,99312.86
2019-03-22T01:33:29.379Z,99317.55
2019-03-22T01:35:31.019Z,99312.86
2019-03-22T01:37:32.623Z,99312.42
2019-03-22T01:39:34.221Z,99308.17
2019-03-22T01:41:35.817Z,99306.45
2019-03-22T01:43:37.399Z,99313.27
2019-03-22T01:45:39.099Z,99309.00
2019-03-22T01:47:40.697Z,99308.17
2019-03-22T01:49:42.322Z,99311.15
2019-03-22T01:51:43.915Z,99314.14
2019-03-22T01:53:45.509Z,99316.28
2019-03-22T01:55:47.137Z,99317.55
2019-03-22T01:57:53.698Z,99307.34
2019-03-22T01:59:50.379Z,99309.03
2019-03-22T02:01:51.964Z,99317.16
2019-03-22T02:03:53.554Z,99311.61
2019-03-22T02:05:55.200Z,99315.02
2019-03-22T02:07:56.821Z,99314.63
2019-03-22T02:09:58.436Z,99316.73
2019-03-22T02:12:00.034Z,99303.94
2019-03-22T02:14:01.649Z,99308.64
2019-03-22T02:16:03.238Z,99307.80
2019-03-22T02:18:04.883Z,99309.92
2019-03-22T02:20:06.492Z,99308.65
2019-03-22T02:22:08.126Z,99305.24
2019-03-22T02:24:09.718Z,99301.81
2019-03-22T02:26:11.317Z,99298.00
2019-03-22T02:28:12.945Z,99299.67
2019-03-22T02:30:14.543Z,99301.38
2019-03-22T02:32:16.192Z,99290.28
2019-03-22T02:34:17.776Z,99294.57
2019-03-22T02:36:19.372Z,99288.61
2019-03-22T02:38:21.002Z,99281.37
2019-03-22T02:40:22.618Z,99285.64
2019-03-22T02:42:24.264Z,99282.22
2019-03-22T02:44:25.888Z,99280.91
2019-03-22T02:46:27.530Z,99284.73
2019-03-22T02:48:29.177Z,99277.02
2019-03-22T02:50:30.777Z,99277.00
2019-03-22T02:52:32.397Z,99287.70
2019-03-22T02:54:34.013Z,99283.02
2019-03-22T02:56:35.715Z,99283.38
2019-03-22T02:58:37.318Z,99280.80
2019-03-22T03:00:38.914Z,99286.31
2019-03-22T03:02:40.513Z,99285.05
2019-03-22T03:04:42.121Z,99284.23
2019-03-22T03:06:43.723Z,99238.34
2019-03-22T03:08:45.366Z,99288.11
2019-03-22T03:10:46.972Z,99280.02
2019-03-22T03:12:48.612Z,99275.73
2019-03-22T03:14:50.230Z,99274.05
2019-03-22T03:16:51.852Z,99272.38
2019-03-22T03:18:53.477Z,99273.66
2019-03-22T03:20:55.101Z,99276.22
2019-03-22T03:22:56.697Z,99281.74
2019-03-22T03:24:58.326Z,99275.33
2019-03-22T03:26:59.922Z,99283.86
2019-03-22T03:29:01.526Z,99281.29
2019-03-22T03:31:03.184Z,99274.89
2019-03-22T03:33:04.809Z,99279.55
2019-03-22T03:35:06.455Z,99273.98
2019-03-22T03:37:08.056Z,99278.67
2019-03-22T03:39:09.667Z,99271.00
2019-03-22T03:41:11.420Z,99280.33
2019-03-22T03:43:13.001Z,99282.03
2019-03-22T03:45:14.624Z,99284.99
2019-03-22T03:47:16.219Z,99287.10
2019-03-22T03:49:17.805Z,99287.10
2019-03-22T03:51:19.435Z,99286.27
2019-03-22T03:53:21.044Z,99285.84
2019-03-22T03:55:22.643Z,99287.13
2019-03-22T03:57:24.240Z,99289.28
2019-03-22T03:59:25.863Z,99291.41
2019-03-22T04:01:27.467Z,99290.56
2019-03-22T04:03:29.081Z,99293.54
2019-03-22T04:05:30.701Z,99287.13
2019-03-22T04:07:32.314Z,99285.00
2019-03-22T04:09:33.911Z,99289.27
2019-03-22T04:11:35.507Z,99292.23
2019-03-22T04:13:37.098Z,99282.84
2019-03-22T04:15:38.698Z,99289.23
2019-03-22T04:17:40.341Z,99290.11
2019-03-22T04:19:41.943Z,99282.45
2019-03-22T04:21:43.553Z,99278.17
2019-03-22T04:23:45.173Z,99279.89
2019-03-22T04:25:46.775Z,99282.90
2019-03-22T04:27:48.408Z,99281.64
2019-03-22T04:29:50.023Z,99276.95
2019-03-22T04:31:51.614Z,99278.25
2019-03-22T04:33:53.261Z,99280.38
2019-03-22T04:35:54.858Z,99288.50
2019-03-22T04:37:56.504Z,99287.24
2019-03-22T04:39:58.116Z,99285.55
2019-03-22T04:41:59.732Z,99293.20
2019-03-22T04:44:01.336Z,99299.17
2019-03-22T04:46:02.943Z,99306.88
2019-03-22T04:48:04.587Z,99303.04
2019-03-22T04:50:06.172Z,99301.76
2019-03-22T04:52:07.780Z,99301.33
2019-03-22T04:54:09.388Z,99300.06
2019-03-22T04:56:10.986Z,99303.02
2019-03-22T04:58:12.684Z,99300.46
2019-03-22T05:00:14.292Z,99292.37
2019-03-22T05:02:15.901Z,99302.17
2019-03-22T05:04:17.508Z,99298.73
2019-03-22T05:06:19.117Z,99298.33
2019-03-22T05:08:20.738Z,99297.09
2019-03-22T05:10:22.375Z,99308.62
2019-03-22T05:12:23.974Z,99309.48
2019-03-22T05:14:25.575Z,99303.55
2019-03-22T05:16:27.276Z,99299.27
2019-03-22T05:18:28.884Z,99300.98
2019-03-22T05:20:30.482Z,99301.45
2019-03-22T05:22:32.096Z,99304.02
2019-03-22T05:24:33.693Z,99304.00
2019-03-22T05:26:35.304Z,99307.85
2019-03-22T05:28:36.888Z,99317.64
2019-03-22T05:30:38.482Z,99321.02
2019-03-22T05:32:40.077Z,99321.02
2019-03-22T05:34:41.729Z,99316.28
2019-03-22T05:36:43.337Z,99320.04
2019-03-22T05:38:44.934Z,99330.23
2019-03-22T05:40:46.529Z,99320.80
2019-03-22T05:42:48.137Z,99334.86
2019-03-22T05:44:49.773Z,99332.25
2019-03-22T05:46:51.383Z,99333.09
2019-03-22T05:48:52.994Z,99345.87
2019-03-22T05:50:54.624Z,99339.48
2019-03-22T05:52:56.228Z,99344.55
2019-03-22T05:54:57.841Z,99350.93
2019-03-22T05:56:59.444Z,99345.81
2019-03-22T05:59:01.041Z,99352.23
2019-03-22T06:01:02.624Z,99347.98
2019-03-22T06:03:04.218Z,99355.69
2019-03-22T06:05:05.865Z,99396.66
2019-03-22T06:07:07.483Z,99359.95
2019-03-22T06:09:09.082Z,99363.39
2019-03-22T06:11:10.727Z,99370.23
2019-03-22T06:13:12.341Z,99371.52
2019-03-22T06:15:13.982Z,99372.41
2019-03-22T06:17:15.577Z,99368.59
2019-03-22T06:19:17.171Z,99366.47
2019-03-22T06:21:18.792Z,99360.95
2019-03-22T06:23:20.400Z,99360.10
2019-03-22T06:25:22.147Z,99364.83
2019-03-22T06:27:23.743Z,99362.27
2019-03-22T06:31:33.416Z,99364.88
2019-03-22T06:33:35.003Z,99369.53
2019-03-22T06:35:36.608Z,99373.39
2019-03-22T06:37:38.246Z,99322.34
2019-03-22T06:39:39.837Z,99367.86
2019-03-22T06:41:41.455Z,99364.88
2019-03-22T06:43:43.049Z,99366.59
2019-03-22T06:45:44.642Z,99372.12
2019-03-22T06:47:46.234Z,99373.85
2019-03-22T06:49:47.846Z,99378.53
2019-03-22T06:51:49.473Z,99374.71
2019-03-22T06:53:51.074Z,99370.48
2019-03-22T06:55:52.666Z,99373.03
2019-03-22T06:57:54.262Z,99377.31
2019-03-22T07:00:05.940Z,99381.98
2019-03-22T07:01:57.526Z,99383.28
2019-03-22T07:03:59.132Z,99385.82
2019-03-22T07:06:00.768Z,99384.97
2019-03-22T07:08:02.371Z,99380.27
2019-03-22T07:10:03.985Z,99378.93
2019-03-22T07:12:05.614Z,99376.80
2019-03-22T07:14:07.255Z,99378.89
2019-03-22T07:16:08.865Z,99375.87
2019-03-22T07:18:10.617Z,99376.70
2019-03-22T07:20:12.200Z,99373.27
2019-03-22T07:22:13.809Z,99366.86
2019-03-22T07:24:16.167Z,99367.23
2019-03-22T07:26:17.772Z,99359.56
2019-03-22T07:28:19.370Z,99356.14
2019-03-22T07:30:20.966Z,99355.26
2019-03-22T07:32:22.557Z,99353.55
2019-03-22T07:34:24.197Z,99361.67
2019-03-22T07:36:25.812Z,99364.64
2019-03-22T07:38:27.456Z,99359.09
2019-03-22T07:40:29.040Z,99363.80
2019-03-22T07:42:30.634Z,99359.95
2019-03-22T07:44:32.253Z,99361.23
2019-03-22T07:46:33.853Z,99362.09
2019-03-22T07:48:35.456Z,99363.36
2019-03-22T07:50:37.059Z,99362.53
2019-03-22T07:52:38.653Z,99363.41
2019-03-22T07:54:40.268Z,99367.24
2019-03-22T07:56:41.875Z,99364.70
2019-03-22T07:58:43.469Z,99357.88
2019-03-22T08:00:45.066Z,99358.29
2019-03-22T08:02:46.677Z,99360.81
2019-03-22T08:04:48.270Z,99360.75
2019-03-22T08:06:49.872Z,99371.41
2019-03-22T08:08:51.474Z,99379.92
2019-03-22T08:10:53.779Z,99380.34
2019-03-22T08:12:55.377Z,99383.34
2019-03-22T08:14:56.969Z,99390.16
2019-03-22T08:16:58.598Z,99386.34
2019-03-22T08:19:00.207Z,99379.11
2019-03-22T08:21:01.852Z,99382.09
2019-03-22T08:23:03.497Z,99380.41
2019-03-22T08:25:05.098Z,99389.78
2019-03-22T08:27:06.735Z,99389.36
2019-03-22T08:29:08.346Z,99390.20
2019-03-22T08:31:09.977Z,99397.11
2019-03-22T08:33:11.598Z,99393.58
2019-03-22T08:35:13.196Z,99399.19
2019-03-22T08:37:14.847Z,99406.03
2019-03-22T08:39:16.536Z,99402.58
2019-03-22T08:41:18.173Z,99413.22
2019-03-22T08:43:19.783Z,99417.08
2019-03-22T08:45:21.368Z,99415.77
2019-03-22T08:47:33.091Z,99414.92
2019-03-22T08:49:24.817Z,99411.12
2019-03-22T08:51:26.344Z,99411.44
2019-03-22T08:53:27.966Z,99408.80
2019-03-22T08:55:29.566Z,99413.02
2019-03-22T08:57:31.232Z,99404.48
2019-03-22T08:59:32.815Z,99412.09
2019-03-22T09:01:34.415Z,99402.72
2019-03-22T09:03:36.029Z,99398.39
2019-03-22T09:05:37.631Z,99393.25
2019-03-22T09:07:39.242Z,99383.41
2019-03-22T09:09:41.811Z,99386.36
2019-03-22T09:11:42.542Z,99391.47
2019-03-22T09:13:44.133Z,99384.64
2019-03-22T09:15:45.738Z,99394.01
2019-03-22T09:17:47.450Z,99388.86
2019-03-22T09:19:51.164Z,99398.69
2019-03-22T09:21:50.816Z,99395.67
2019-03-22T09:23:52.455Z,99398.25
2019-03-22T09:25:54.079Z,99397.81
2019-03-22T09:27:55.722Z,99393.52
2019-03-22T09:29:57.394Z,99395.25
2019-03-22T09:31:59.014Z,99395.25
2019-03-22T09:34:00.636Z,99402.08
2019-03-22T09:36:02.259Z,99397.77
2019-03-22T09:38:12.797Z,99360.81
2019-03-22T09:40:08.285Z,99376.07
2019-03-22T09:42:07.218Z,99402.93
2019-03-22T09:44:08.873Z,99399.52
2019-03-22T09:46:10.479Z,99389.30
2019-03-22T09:48:12.083Z,99386.74
2019-03-22T09:50:13.781Z,99378.66
2019-03-22T09:52:15.389Z,99381.20
2019-03-22T09:54:16.995Z,99386.96
2019-03-22T09:56:18.659Z,99374.57
2019-03-22T09:58:20.264Z,99378.89
2019-03-22T10:00:21.897Z,99376.78
2019-03-22T10:02:23.489Z,99379.36
2019-03-22T10:04:25.083Z,99372.98
2019-03-22T10:06:26.748Z,99368.30
2019-03-22T10:08:28.380Z,99355.93
2019-03-22T10:10:30.004Z,99356.36
2019-03-22T10:12:31.602Z,99360.22
2019-03-22T10:14:33.198Z,99355.09
2019-03-22T10:16:34.815Z,99357.25
2019-03-22T10:18:36.993Z,99356.42
2019-03-22T10:20:38.121Z,99355.55
2019-03-22T10:22:39.746Z,99359.39
2019-03-22T10:24:41.371Z,99357.69
2019-03-22T10:26:43.006Z,99355.95
2019-03-22T10:28:44.618Z,99355.95
2019-03-22T10:30:46.268Z,99349.55
2019-03-22T10:32:47.992Z,99350.82
2019-03-22T10:34:49.602Z,99357.23
2019-03-22T10:36:51.241Z,99354.69
2019-03-22T10:38:52.893Z,99348.62
2019-03-22T10:40:54.514Z,99343.05
2019-03-22T10:42:56.178Z,99340.03
2019-03-22T10:44:57.802Z,99342.14
2019-03-22T10:46:59.434Z,99334.05
2019-03-22T10:49:01.032Z,99335.33
2019-03-22T10:51:02.630Z,99330.66
2019-03-22T10:53:04.400Z,99329.81
2019-03-22T10:55:23.196Z,99331.12
2019-03-22T10:57:07.701Z,99320.89
2019-03-22T10:59:09.375Z,99315.36
2019-03-22T11:01:10.970Z,99317.34
2019-03-22T11:03:12.579Z,99314.25
2019-03-22T11:05:14.173Z,99319.84
2019-03-22T11:07:15.868Z,99309.13
2019-03-22T11:09:17.461Z,99310.95
2019-03-22T11:11:19.068Z,99307.98
2019-03-22T11:13:20.652Z,99311.37
2019-03-22T11:15:23.929Z,99304.11
2019-03-22T11:17:23.971Z,99301.52
2019-03-22T11:19:25.565Z,99303.49
2019-03-22T11:21:27.161Z,99293.17
2019-03-22T11:23:28.764Z,99288.69
2019-03-22T11:25:30.357Z,99285.09
2019-03-22T11:27:31.959Z,99282.83
2019-03-22T11:29:34.056Z,99279.84
2019-03-22T11:31:39.847Z,99282.37
2019-03-22T11:33:37.312Z,99282.25
2019-03-22T11:35:38.905Z,99281.73
2019-03-22T11:37:40.488Z,99278.66
2019-03-22T11:39:42.124Z,99272.28
2019-03-22T11:41:43.717Z,99271.90
2019-03-22T11:43:45.312Z,99273.46
2019-03-22T11:45:46.920Z,99269.50
2019-03-22T11:47:48.514Z,99268.64
2019-03-22T11:49:50.159Z,99272.14
2019-03-22T11:51:51.743Z,99268.34
2019-03-22T11:53:53.338Z,99269.80
2019-03-22T11:55:55.436Z,99276.64
2019-03-22T11:57:57.036Z,99269.83
2019-03-22T11:59:58.730Z,99271.97
2019-03-22T12:02:00.339Z,99271.14
2019-03-22T12:04:01.936Z,99268.98
2019-03-22T12:06:03.559Z,99268.58
2019-03-22T12:08:05.157Z,99236.70
2019-03-22T12:10:06.798Z,99259.15
2019-03-22T12:12:08.403Z,99256.13
2019-03-22T12:14:10.056Z,99247.58
2019-03-22T12:16:11.664Z,99245.86
2019-03-22T12:18:13.247Z,99243.77
2019-03-22T12:20:14.915Z,99240.77
2019-03-22T12:22:16.550Z,99239.87
2019-03-22T12:24:19.169Z,99234.75
2019-03-22T12:26:20.771Z,99231.80
2019-03-22T12:28:22.388Z,99240.34
2019-03-22T12:30:24.008Z,99236.03
2019-03-22T12:32:32.312Z,99239.06
2019-03-22T12:34:31.822Z,99227.95
2019-03-22T12:36:33.452Z,99222.78
2019-03-22T12:38:44.965Z,99179.12
2019-03-22T12:40:46.568Z,99221.93
2019-03-22T12:42:48.162Z,99218.51
2019-03-22T12:44:49.771Z,99216.37
2019-03-22T12:46:51.382Z,99218.91
2019-03-22T12:48:52.985Z,99212.88
2019-03-22T12:50:54.616Z,99206.04
2019-03-22T12:52:56.213Z,99200.95
2019-03-22T12:54:57.820Z,99197.53
2019-03-22T12:56:59.406Z,99198.42
2019-03-22T12:59:01.001Z,99204.80
2019-03-22T13:01:02.656Z,99194.54
2019-03-22T13:03:04.250Z,99199.27
2019-03-22T13:05:05.846Z,99199.95
2019-03-22T13:07:07.508Z,99190.91
2019-03-22T13:09:09.095Z,99188.94
2019-03-22T13:11:12.530Z,99192.05
2019-03-22T13:13:14.198Z,99192.56
2019-03-22T13:15:15.793Z,99187.42
2019-03-22T13:17:18.170Z,99186.19
2019-03-22T13:19:19.828Z,99186.58
2019-03-22T13:21:21.514Z,99180.55
2019-03-22T13:23:23.105Z,99174.98
2019-03-22T13:25:24.703Z,99182.22
2019-03-22T13:27:26.487Z,99166.44
2019-03-22T13:29:28.131Z,99175.88
2019-03-22T13:31:29.752Z,99163.95
2019-03-22T13:33:31.345Z,99157.12
2019-03-22T13:35:33.014Z,99157.11
2019-03-22T13:37:34.618Z,99150.75
2019-03-22T13:39:36.236Z,99152.06
2019-03-22T13:41:37.843Z,99149.92
2019-03-22T13:43:39.442Z,99145.70
2019-03-22T13:45:41.129Z,99146.98
2019-03-22T13:47:42.726Z,99146.08
2019-03-22T13:49:44.319Z,99148.17
2019-03-22T13:51:45.954Z,99141.73
2019-03-22T13:53:47.560Z,99145.95
2019-03-22T13:55:49.195Z,99140.12
2019-03-22T17:02:21.810Z,99045.77
2019-03-22T17:04:23.431Z,99045.16
2019-03-22T17:06:25.002Z,99046.67
2019-03-22T17:08:26.609Z,99049.80
2019-03-22T17:10:28.196Z,99048.09
2019-03-22T17:12:29.831Z,99048.59
2019-03-22T17:14:31.420Z,99048.94
2019-03-22T17:16:33.040Z,99048.77
2019-03-22T17:18:34.623Z,99045.06
2019-03-22T17:20:36.194Z,99041.80
2019-03-22T18:47:13.450Z,99065.94
2019-03-22T18:49:15.043Z,99066.38
2019-03-22T18:51:16.644Z,99066.41
2019-03-22T18:53:19.183Z,99069.30
2019-03-22T18:55:22.967Z,99067.17
2019-03-22T18:57:28.450Z,99067.13
2019-03-22T18:59:31.918Z,99071.87
2019-03-22T19:01:33.756Z,99064.95
2019-03-22T19:03:36.411Z,99074.52
2019-03-22T19:05:38.538Z,99070.55
2019-03-22T19:07:40.156Z,99075.62
2019-03-22T19:09:41.759Z,99046.75
2019-03-22T19:11:43.348Z,99069.30
2019-03-22T19:13:44.953Z,99068.03
2019-03-22T19:15:46.598Z,99076.19
2019-03-22T19:17:48.189Z,99064.23
2019-03-22T19:19:49.835Z,99061.66
